EmailTwitter


Observations de surface / France / LFBP (07610)

Régions: Québec | Canada | États-Unis | Europe | France | UK | Ailleurs
Station
Affichage
Infos & localisation pour LFBP (07610) | Aide pour décoder les METARs

Observations prises le 2021-03-04 à 22H00 UTC à PONT-LONG-UZEIN/, FR (LFBP)

Etat du ciel: partiellement nuageux.

Température: 13.0 Celsius

Point de rosée: 8.0 Celsius

Humidité relative: 72%

Vents: Nord-est à 7 km/h ou 4 noeuds.

Pression au niveau moyen de la mer: 101.80 kilopascals.

Visibilité horizontale: 6.21 milles terrestres ou 9.94 kilomètres.

Hauteur du plafond: 2560 mètres ( 8400 pieds ).

Observation METAR:

LFBP 042200Z AUTO 04004KT 9999 FEW040 BKN084 13/08 Q1018 TEMPO 4000 BR=